Time;durP1;ratioP1;P1;durP2;ratioP2;P2;SDS_P1;SDS_P2;PMS_P1;PMS_P2;Temp;Humidity;BMP_temperature;BMP_pressure;BME280_temperature;BME280_humidity;BME280_pressure;Samples;Min_cycle;Max_cycle;Signal;HPM_P1;HPM_P2
2021/07/26 00:00:51;;;;;;;1.50;0.90;;;20.20;96.70;;;;;;5019964;28;20462;-81
2021/07/26 00:03:18;;;;;;;1.50;0.90;;;20.20;96.80;;;;;;5033470;28;20487;-80
2021/07/26 00:05:54;;;;;;;1.50;0.90;;;20.20;96.70;;;;;;5030839;28;20467;-83
2021/07/26 00:08:20;;;;;;;1.60;1.10;;;20.20;96.70;;;;;;5019073;28;20839;-81
2021/07/26 00:10:47;;;;;;;1.50;0.90;;;20.20;96.60;;;;;;5024610;28;20466;-82
2021/07/26 00:13:14;;;;;;;1.50;0.90;;;20.10;96.80;;;;;;5042937;28;20463;-81
2021/07/26 00:15:41;;;;;;;1.57;1.03;;;20.10;96.50;;;;;;5034997;28;20993;-81
2021/07/26 00:18:10;;;;;;;1.50;0.90;;;20.10;96.80;;;;;;5024427;28;20488;-82
2021/07/26 00:20:36;;;;;;;1.50;0.90;;;20.10;97.00;;;;;;5032934;28;20478;-82
2021/07/26 00:23:03;;;;;;;1.50;0.90;;;20.10;96.90;;;;;;5033283;28;20482;-81
2021/07/26 00:25:30;;;;;;;1.50;0.90;;;20.00;97.00;;;;;;5037116;28;20469;-82
2021/07/26 00:27:57;;;;;;;1.50;1.00;;;20.00;96.90;;;;;;5025551;28;20494;-82
2021/07/26 00:30:23;;;;;;;1.50;0.90;;;20.00;97.40;;;;;;5024029;28;20466;-79
2021/07/26 00:32:50;;;;;;;1.50;1.00;;;20.00;97.10;;;;;;5018356;28;20478;-79
2021/07/26 00:35:18;;;;;;;1.50;0.90;;;20.00;97.00;;;;;;5013451;28;20952;-80
2021/07/26 00:37:45;;;;;;;1.50;0.90;;;19.90;97.30;;;;;;5015036;28;20989;-81
2021/07/26 00:40:13;;;;;;;1.50;0.90;;;20.00;97.10;;;;;;5014328;28;20476;-81
2021/07/26 00:42:39;;;;;;;1.53;1.00;;;19.90;97.20;;;;;;5012194;28;20475;-81
2021/07/26 00:45:07;;;;;;;1.50;1.00;;;19.90;97.00;;;;;;5014062;28;20452;-82
2021/07/26 00:47:34;;;;;;;1.50;0.90;;;19.90;97.00;;;;;;5018184;28;20498;-81
2021/07/26 00:50:01;;;;;;;1.50;0.90;;;19.90;97.20;;;;;;5031785;28;20470;-82
2021/07/26 00:52:30;;;;;;;1.50;1.00;;;19.80;97.60;;;;;;5036786;28;20484;-80
2021/07/26 00:54:57;;;;;;;1.53;1.00;;;19.80;97.50;;;;;;5037622;28;20467;-82
2021/07/26 00:57:24;;;;;;;1.50;0.90;;;19.80;97.40;;;;;;5028396;28;20489;-81
2021/07/26 00:59:52;;;;;;;1.50;1.00;;;19.80;97.70;;;;;;5037045;28;20538;-82
2021/07/26 01:02:19;;;;;;;1.50;0.90;;;19.80;97.40;;;;;;5036317;28;20493;-82
2021/07/26 01:04:46;;;;;;;1.50;0.90;;;19.80;97.90;;;;;;5037430;28;20459;-81
2021/07/26 01:07:13;;;;;;;1.50;1.00;;;19.80;97.70;;;;;;5031291;28;20489;-80
2021/07/26 01:09:41;;;;;;;1.50;0.93;;;19.80;97.80;;;;;;5038282;28;20550;-79
2021/07/26 01:12:08;;;;;;;1.50;1.00;;;19.80;97.90;;;;;;5030515;28;20482;-78
2021/07/26 01:14:36;;;;;;;1.50;0.90;;;19.80;98.00;;;;;;5038121;28;20823;-80
2021/07/26 01:17:05;;;;;;;1.50;0.90;;;19.80;98.00;;;;;;5030903;28;20486;-83
2021/07/26 01:19:32;;;;;;;1.50;0.90;;;19.80;98.10;;;;;;5039523;28;20455;-80
2021/07/26 01:22:01;;;;;;;1.50;0.90;;;19.80;98.20;;;;;;5025678;28;20478;-81
2021/07/26 01:24:27;;;;;;;1.50;1.00;;;19.80;98.00;;;;;;5038730;28;20491;-82
2021/07/26 01:26:54;;;;;;;1.50;0.90;;;19.80;98.20;;;;;;5031494;28;20532;-80
2021/07/26 01:29:22;;;;;;;1.50;0.90;;;19.80;98.20;;;;;;5041483;28;20455;-83
2021/07/26 01:31:49;;;;;;;1.50;0.90;;;19.80;98.20;;;;;;5031008;28;20497;-80
2021/07/26 01:34:16;;;;;;;1.50;1.00;;;19.80;98.20;;;;;;5039201;28;20455;-81
2021/07/26 01:36:43;;;;;;;1.50;0.90;;;19.80;98.20;;;;;;5028208;28;20486;-80
2021/07/26 01:39:30;;;;;;;1.50;1.00;;;19.90;98.20;;;;;;5027942;28;20771;-81
2021/07/26 01:41:57;;;;;;;1.50;0.90;;;19.90;98.20;;;;;;5021247;28;21040;-80
2021/07/26 01:44:24;;;;;;;1.50;1.00;;;19.90;98.20;;;;;;5036164;28;20532;-78
2021/07/26 01:46:56;;;;;;;1.50;0.90;;;19.90;98.20;;;;;;5020203;28;20483;-82
2021/07/26 01:49:44;;;;;;;1.50;1.00;;;19.90;98.20;;;;;;5020394;28;20956;-83
2021/07/26 01:52:12;;;;;;;1.50;0.93;;;19.90;98.20;;;;;;5014731;28;20499;-82
2021/07/26 01:54:43;;;;;;;1.50;1.00;;;19.80;98.20;;;;;;5018038;28;20922;-81
2021/07/26 01:57:10;;;;;;;1.50;0.90;;;19.80;98.20;;;;;;5009751;28;20541;-80
2021/07/26 01:59:37;;;;;;;1.50;1.00;;;19.80;98.20;;;;;;5017522;28;20464;-82
2021/07/26 02:02:05;;;;;;;1.50;0.90;;;19.80;98.20;;;;;;5017179;28;20478;-81
2021/07/26 02:04:45;;;;;;;1.50;0.90;;;19.80;98.20;;;;;;5034494;28;20490;-82
2021/07/26 02:07:12;;;;;;;1.50;0.90;;;19.80;98.20;;;;;;5035033;28;20490;-83
2021/07/26 02:09:40;;;;;;;1.50;0.90;;;19.80;98.20;;;;;;5038314;28;20472;-80
2021/07/26 02:12:08;;;;;;;1.50;1.00;;;19.80;98.20;;;;;;5031630;28;20486;-82
2021/07/26 02:14:38;;;;;;;1.50;0.90;;;19.70;98.20;;;;;;5037178;28;20460;-80
2021/07/26 02:17:06;;;;;;;1.53;0.90;;;19.70;98.20;;;;;;5029706;28;20516;-82
2021/07/26 02:19:33;;;;;;;1.50;0.90;;;19.60;98.20;;;;;;5035861;28;20551;-82
2021/07/26 02:22:00;;;;;;;1.50;0.90;;;19.60;98.20;;;;;;5032696;28;20474;-82
2021/07/26 02:24:26;;;;;;;1.50;1.00;;;19.60;98.20;;;;;;5038102;28;20487;-81
2021/07/26 02:26:55;;;;;;;1.50;0.90;;;19.60;98.20;;;;;;5027651;28;20509;-82
2021/07/26 02:29:24;;;;;;;1.50;0.90;;;19.50;98.20;;;;;;5039023;28;20479;-82
2021/07/26 02:31:51;;;;;;;1.50;0.90;;;19.50;98.20;;;;;;5027494;28;20485;-81
2021/07/26 02:34:18;;;;;;;1.50;0.93;;;19.60;98.20;;;;;;5039191;28;20459;-81
2021/07/26 02:36:45;;;;;;;1.53;0.90;;;19.60;98.20;;;;;;5030888;28;20857;-81
2021/07/26 02:39:12;;;;;;;1.50;0.90;;;19.60;98.20;;;;;;5042431;28;20628;-78
2021/07/26 02:41:41;;;;;;;1.50;0.90;;;19.60;98.20;;;;;;5026632;28;20493;-80
2021/07/26 02:44:10;;;;;;;1.50;0.90;;;19.50;98.20;;;;;;5040168;28;20479;-80
2021/07/26 02:46:36;;;;;;;1.50;0.90;;;19.50;98.20;;;;;;5021458;28;20487;-81
2021/07/26 02:49:03;;;;;;;1.50;1.00;;;19.50;98.20;;;;;;5021436;28;20464;-80
2021/07/26 02:51:30;;;;;;;1.50;0.90;;;19.50;98.20;;;;;;4997066;28;20483;-76
2021/07/26 02:53:57;;;;;;;1.50;0.90;;;19.50;98.20;;;;;;5019543;28;20490;-77
2021/07/26 02:56:24;;;;;;;1.50;0.90;;;19.50;98.20;;;;;;5001516;28;20488;-79
2021/07/26 02:58:50;;;;;;;1.50;0.90;;;19.50;98.20;;;;;;5006656;28;20464;-77
2021/07/26 03:01:19;;;;;;;1.50;0.90;;;19.50;98.20;;;;;;5000862;28;20529;-79
2021/07/26 03:03:45;;;;;;;1.50;0.90;;;19.40;98.20;;;;;;5023578;28;20495;-78
2021/07/26 03:06:16;;;;;;;1.50;0.90;;;19.40;98.20;;;;;;5008598;28;20573;-80
2021/07/26 03:08:43;;;;;;;1.50;1.00;;;19.40;98.20;;;;;;5033892;28;20463;-81
2021/07/26 03:11:11;;;;;;;1.50;1.00;;;19.40;98.20;;;;;;5022969;28;21044;-79
2021/07/26 03:13:38;;;;;;;1.50;0.90;;;19.40;98.20;;;;;;5040999;28;20456;-79
2021/07/26 03:16:06;;;;;;;1.50;0.90;;;19.40;98.20;;;;;;5020463;28;20459;-79
2021/07/26 03:18:35;;;;;;;1.50;0.90;;;19.40;98.20;;;;;;5039506;28;20467;-80
2021/07/26 03:21:02;;;;;;;1.50;0.90;;;19.40;98.20;;;;;;5023787;28;20464;-80
2021/07/26 03:23:29;;;;;;;1.50;0.90;;;19.40;98.20;;;;;;5031484;28;20496;-79
2021/07/26 03:25:55;;;;;;;1.50;0.90;;;19.40;98.20;;;;;;5024467;28;20467;-80
2021/07/26 03:28:22;;;;;;;1.50;1.00;;;19.40;98.20;;;;;;5033217;28;20468;-80
2021/07/26 03:30:49;;;;;;;1.50;1.00;;;19.40;98.20;;;;;;5023544;28;20741;-80
2021/07/26 03:33:16;;;;;;;1.50;0.90;;;19.40;98.20;;;;;;5033117;28;20471;-80
2021/07/26 03:35:44;;;;;;;1.50;0.90;;;19.40;98.20;;;;;;5029904;28;20471;-80
2021/07/26 03:38:11;;;;;;;1.50;0.90;;;19.40;98.20;;;;;;5017340;28;20499;-79
2021/07/26 03:40:38;;;;;;;1.50;0.90;;;19.30;98.20;;;;;;5026306;28;20478;-81
2021/07/26 03:43:05;;;;;;;1.50;0.90;;;19.30;98.20;;;;;;5035659;28;20877;-81
2021/07/26 03:45:32;;;;;;;1.50;0.90;;;19.30;98.20;;;;;;5032934;28;20470;-82
2021/07/26 03:48:00;;;;;;;1.50;0.90;;;19.30;98.20;;;;;;5029276;28;20756;-81
2021/07/26 03:50:28;;;;;;;1.50;1.00;;;19.30;98.20;;;;;;5029023;28;20857;-81
2021/07/26 03:52:57;;;;;;;1.50;0.90;;;19.30;98.20;;;;;;5020900;28;20479;-82
2021/07/26 03:55:25;;;;;;;1.53;0.97;;;19.30;98.20;;;;;;5013046;28;20476;-80
2021/07/26 03:57:53;;;;;;;1.50;0.90;;;19.30;98.20;;;;;;5005953;28;20480;-81
2021/07/26 04:00:22;;;;;;;1.50;1.00;;;19.30;98.20;;;;;;5005664;28;20456;-82
2021/07/26 04:02:52;;;;;;;1.50;0.90;;;19.30;98.20;;;;;;5007805;28;20506;-80
2021/07/26 04:05:25;;;;;;;1.50;1.00;;;19.30;98.20;;;;;;5014850;28;20866;-80
2021/07/26 04:07:51;;;;;;;1.53;0.93;;;19.30;98.20;;;;;;4996175;28;21045;-83
2021/07/26 04:10:20;;;;;;;1.50;0.90;;;19.30;98.20;;;;;;5012045;28;20967;-83
2021/07/26 04:12:50;;;;;;;1.50;0.90;;;19.30;98.20;;;;;;5016990;28;20487;-80
2021/07/26 04:15:17;;;;;;;1.50;0.93;;;19.30;98.20;;;;;;5036023;28;20522;-82
2021/07/26 04:17:44;;;;;;;1.50;0.90;;;19.30;98.20;;;;;;5037153;28;20836;-81
2021/07/26 04:20:12;;;;;;;1.50;0.90;;;19.30;98.20;;;;;;5034021;28;20459;-83
2021/07/26 04:22:39;;;;;;;1.50;0.90;;;19.40;98.20;;;;;;5035374;28;20574;-82
2021/07/26 04:25:07;;;;;;;1.50;1.00;;;19.40;98.20;;;;;;5030484;28;20561;-80
2021/07/26 04:27:36;;;;;;;1.50;0.97;;;19.40;98.20;;;;;;5032789;28;20489;-82
2021/07/26 04:30:05;;;;;;;1.50;0.90;;;19.40;98.20;;;;;;5030909;28;20870;-80
2021/07/26 04:32:39;;;;;;;1.50;1.00;;;19.40;98.20;;;;;;5031023;28;20483;-83
2021/07/26 04:35:08;;;;;;;1.50;0.90;;;19.40;98.20;;;;;;5034512;28;20458;-81
2021/07/26 04:37:36;;;;;;;1.50;0.90;;;19.50;98.20;;;;;;5029055;28;20505;-83
2021/07/26 04:40:03;;;;;;;1.50;0.90;;;19.50;98.20;;;;;;5034203;28;20474;-81
2021/07/26 04:42:30;;;;;;;1.50;0.90;;;19.60;98.20;;;;;;5033990;28;20474;-83
2021/07/26 04:44:58;;;;;;;1.50;0.90;;;19.60;98.20;;;;;;5032683;28;21002;-78
2021/07/26 04:47:25;;;;;;;1.50;0.90;;;19.70;98.20;;;;;;5029790;28;21017;-81
2021/07/26 04:49:52;;;;;;;1.50;0.90;;;19.70;98.20;;;;;;5043647;28;20455;-81
2021/07/26 04:52:22;;;;;;;1.50;1.00;;;19.80;98.20;;;;;;5038937;28;20462;-81
2021/07/26 04:54:49;;;;;;;1.50;0.90;;;19.80;98.20;;;;;;5044724;28;20498;-79
2021/07/26 04:57:16;;;;;;;1.50;0.90;;;19.80;98.20;;;;;;5040841;28;21005;-82
2021/07/26 04:59:45;;;;;;;1.50;0.90;;;19.80;98.20;;;;;;5046623;28;20564;-82
2021/07/26 05:02:14;;;;;;;1.50;0.90;;;19.80;98.20;;;;;;5038623;28;21012;-82
2021/07/26 05:04:43;;;;;;;1.50;1.00;;;19.90;98.20;;;;;;5040005;28;20491;-81
2021/07/26 05:07:11;;;;;;;1.50;0.90;;;19.90;98.20;;;;;;5041181;28;20497;-80
2021/07/26 05:09:40;;;;;;;1.50;0.90;;;20.00;98.20;;;;;;5043725;28;20491;-80
2021/07/26 05:12:13;;;;;;;1.50;0.90;;;20.00;98.20;;;;;;5043254;28;20488;-79
2021/07/26 05:14:44;;;;;;;1.50;1.00;;;20.00;98.20;;;;;;5046878;28;20451;-80
2021/07/26 05:17:11;;;;;;;1.53;0.90;;;20.10;98.20;;;;;;5028596;28;20521;-81
2021/07/26 05:19:42;;;;;;;1.50;0.90;;;20.20;98.20;;;;;;5020992;28;20464;-78
2021/07/26 05:22:09;;;;;;;1.50;1.00;;;20.20;98.20;;;;;;5011506;28;20507;-78
2021/07/26 05:24:39;;;;;;;1.50;0.90;;;20.30;98.20;;;;;;5021032;28;20548;-79
2021/07/26 05:27:08;;;;;;;1.70;1.20;;;20.30;98.20;;;;;;5022171;28;20489;-78
2021/07/26 05:29:36;;;;;;;1.50;0.97;;;20.40;98.20;;;;;;5023528;28;20547;-79
2021/07/26 05:32:06;;;;;;;1.50;1.00;;;20.40;98.20;;;;;;5017183;28;20538;-79
2021/07/26 05:34:34;;;;;;;1.50;0.90;;;20.40;98.20;;;;;;5025391;28;20501;-80
2021/07/26 05:37:03;;;;;;;1.50;0.90;;;20.50;98.20;;;;;;5017951;28;20490;-79
2021/07/26 05:39:30;;;;;;;1.53;0.90;;;20.50;98.20;;;;;;5025522;28;20539;-78
2021/07/26 05:41:59;;;;;;;1.50;0.90;;;20.60;98.20;;;;;;5010852;28;20598;-80
2021/07/26 05:44:27;;;;;;;1.50;0.90;;;20.60;98.20;;;;;;5017542;28;20729;-78
2021/07/26 05:46:54;;;;;;;1.50;0.90;;;20.60;98.20;;;;;;5007482;28;20489;-79
2021/07/26 05:49:21;;;;;;;1.50;0.90;;;20.70;98.20;;;;;;5022793;28;20476;-78
2021/07/26 05:51:48;;;;;;;1.50;0.90;;;20.80;98.20;;;;;;5022339;28;20475;-80
2021/07/26 05:54:17;;;;;;;1.50;1.00;;;20.80;98.20;;;;;;5040350;28;20521;-79
2021/07/26 05:56:46;;;;;;;1.50;0.90;;;20.90;98.20;;;;;;5033834;28;20505;-78
2021/07/26 05:59:15;;;;;;;1.50;1.00;;;21.00;98.20;;;;;;5048810;28;20474;-78
2021/07/26 06:01:49;;;;;;;1.50;0.90;;;21.10;98.20;;;;;;5036941;28;20520;-80
2021/07/26 06:04:18;;;;;;;1.50;0.90;;;21.30;97.90;;;;;;5047360;28;20471;-79
2021/07/26 06:06:46;;;;;;;1.50;0.90;;;21.50;97.40;;;;;;5032687;28;20521;-77
2021/07/26 06:09:13;;;;;;;1.50;0.90;;;21.70;96.10;;;;;;5037753;28;20499;-79
2021/07/26 06:11:43;;;;;;;1.50;0.90;;;21.90;95.40;;;;;;5029052;28;20513;-78
2021/07/26 06:14:11;;;;;;;1.50;0.90;;;22.00;95.20;;;;;;5040005;28;20463;-78
2021/07/26 06:16:41;;;;;;;1.50;0.90;;;22.00;94.60;;;;;;5033524;28;20498;-78
2021/07/26 06:19:10;;;;;;;1.50;0.90;;;22.00;94.90;;;;;;5043103;28;20841;-78
2021/07/26 06:21:44;;;;;;;1.50;0.90;;;22.00;94.90;;;;;;5031554;28;20478;-79
2021/07/26 06:24:12;;;;;;;1.57;0.90;;;22.00;95.00;;;;;;5042272;28;20462;-80
2021/07/26 06:26:41;;;;;;;1.50;0.90;;;22.00;95.00;;;;;;5019367;28;20487;-76
2021/07/26 06:29:09;;;;;;;1.50;0.90;;;22.00;94.70;;;;;;5038062;28;20482;-77
2021/07/26 06:31:37;;;;;;;1.50;0.90;;;22.10;95.00;;;;;;5027465;28;20508;-76
2021/07/26 06:34:05;;;;;;;1.50;0.90;;;22.20;95.30;;;;;;5040049;28;20465;-76
2021/07/26 06:36:32;;;;;;;1.50;0.90;;;22.30;94.70;;;;;;5028976;28;20470;-79
2021/07/26 06:38:59;;;;;;;1.50;0.90;;;22.50;94.80;;;;;;5042571;28;20455;-80
2021/07/26 06:41:26;;;;;;;1.50;0.83;;;22.60;93.90;;;;;;5028320;28;20478;-77
2021/07/26 06:43:55;;;;;;;1.50;0.90;;;22.80;93.80;;;;;;5043703;28;20523;-78
2021/07/26 06:46:22;;;;;;;1.50;0.90;;;23.00;93.40;;;;;;5028594;28;20478;-77
2021/07/26 06:48:56;;;;;;;1.50;0.90;;;23.30;92.40;;;;;;5045667;28;20499;-80
2021/07/26 06:51:23;;;;;;;1.50;0.90;;;23.50;91.70;;;;;;5029214;28;20549;-80
2021/07/26 06:53:50;;;;;;;1.50;0.90;;;23.80;91.30;;;;;;5046860;28;20459;-78
2021/07/26 06:56:17;;;;;;;1.50;0.90;;;24.10;90.50;;;;;;5027141;28;20547;-78
2021/07/26 06:58:44;;;;;;;1.50;0.90;;;24.20;89.50;;;;;;5039393;28;20493;-79
2021/07/26 07:01:14;;;;;;;1.50;0.90;;;24.40;89.30;;;;;;5023160;28;20561;-77
2021/07/26 07:03:45;;;;;;;1.50;0.90;;;24.50;88.90;;;;;;5042429;28;20466;-78
2021/07/26 07:06:14;;;;;;;1.50;0.90;;;24.60;89.20;;;;;;5025506;28;21020;-78
2021/07/26 07:08:42;;;;;;;1.50;0.90;;;24.70;89.00;;;;;;5045209;28;20498;-79
2021/07/26 07:11:10;;;;;;;1.50;0.90;;;24.80;87.70;;;;;;5024628;28;20484;-78
2021/07/26 07:13:39;;;;;;;1.50;0.90;;;24.80;88.00;;;;;;5044639;28;20509;-79
2021/07/26 07:16:09;;;;;;;1.50;0.90;;;24.80;87.80;;;;;;5011466;28;20508;-79
2021/07/26 07:18:37;;;;;;;1.50;0.90;;;24.90;87.20;;;;;;5029203;28;20464;-79
2021/07/26 07:21:05;;;;;;;1.50;0.90;;;24.80;87.00;;;;;;5009413;28;21003;-78
2021/07/26 07:23:32;;;;;;;1.50;0.90;;;24.80;87.10;;;;;;5032804;28;20459;-79
2021/07/26 07:26:01;;;;;;;1.50;0.90;;;24.90;86.90;;;;;;5016429;28;20922;-78
2021/07/26 07:28:28;;;;;;;1.50;0.90;;;25.00;87.20;;;;;;5029951;28;20468;-78
2021/07/26 07:30:55;;;;;;;1.50;0.80;;;25.10;86.50;;;;;;5020485;28;20962;-78
2021/07/26 07:33:22;;;;;;;1.50;0.83;;;25.10;86.60;;;;;;5017158;28;20464;-79
2021/07/26 07:35:50;;;;;;;1.50;0.90;;;25.10;86.30;;;;;;5004023;28;20502;-79
2021/07/26 07:38:17;;;;;;;1.50;0.90;;;25.10;86.60;;;;;;5035339;28;20512;-78
2021/07/26 07:40:45;;;;;;;1.50;0.90;;;25.30;86.70;;;;;;5033717;28;20471;-78
2021/07/26 07:43:14;;;;;;;1.50;0.90;;;25.50;85.80;;;;;;5021342;28;20589;-81
2021/07/26 07:46:09;;;;;;;1.50;0.90;;;25.50;84.90;;;;;;5033565;28;20574;-80
2021/07/26 07:48:37;;;;;;;1.50;0.90;;;25.50;83.90;;;;;;4995807;28;20527;-79
2021/07/26 07:51:08;;;;;;;1.50;0.90;;;25.40;84.10;;;;;;5003793;28;20464;-79
2021/07/26 07:53:35;;;;;;;1.50;0.90;;;25.30;83.90;;;;;;5024405;28;20476;-79
2021/07/26 07:56:02;;;;;;;1.50;0.90;;;25.20;84.00;;;;;;4999117;28;20531;-79
2021/07/26 07:58:29;;;;;;;1.50;0.90;;;25.10;84.50;;;;;;5005953;28;20469;-78
2021/07/26 08:00:57;;;;;;;1.50;0.83;;;25.00;84.90;;;;;;4979553;28;20469;-77
2021/07/26 08:06:30;;;;;;;1.50;0.90;;;24.90;85.00;;;;;;5003860;28;20993;-77
2021/07/26 08:08:57;;;;;;;1.50;0.90;;;25.10;85.70;;;;;;5021502;28;20555;-79
2021/07/26 08:11:24;;;;;;;1.50;0.90;;;25.30;85.30;;;;;;5003827;28;20554;-80
2021/07/26 08:13:54;;;;;;;1.50;0.90;;;25.60;85.60;;;;;;5005560;28;20457;-81
2021/07/26 08:16:23;;;;;;;1.50;0.90;;;26.00;84.10;;;;;;4983281;28;20510;-79
2021/07/26 08:18:50;;;;;;;1.50;0.80;;;26.40;82.60;;;;;;5002483;28;20457;-78
2021/07/26 08:21:17;;;;;;;1.50;0.80;;;26.70;81.50;;;;;;4987227;28;20503;-77
2021/07/26 08:23:46;;;;;;;1.50;0.90;;;26.90;80.70;;;;;;5014854;28;20459;-78
2021/07/26 08:26:13;;;;;;;1.50;0.90;;;26.90;81.10;;;;;;5008325;28;20484;-78
2021/07/26 08:28:40;;;;;;;1.53;0.80;;;27.00;80.70;;;;;;5021569;28;20514;-80
2021/07/26 08:31:10;;;;;;;1.50;0.80;;;27.10;79.90;;;;;;5005258;28;20808;-79
2021/07/26 08:33:37;;;;;;;1.50;0.80;;;27.20;79.00;;;;;;5026144;28;20460;-80
2021/07/26 08:36:04;;;;;;;1.50;0.90;;;27.20;79.80;;;;;;5009247;28;20544;-80
2021/07/26 08:38:30;;;;;;;1.50;0.80;;;27.20;78.70;;;;;;5028106;28;20467;-82
2021/07/26 08:40:59;;;;;;;1.50;0.90;;;27.20;79.30;;;;;;5005029;28;20471;-79
2021/07/26 08:43:27;;;;;;;1.50;0.90;;;27.10;79.10;;;;;;5020987;28;20828;-82
2021/07/26 08:45:54;;;;;;;1.50;0.80;;;27.00;79.60;;;;;;5008348;28;20514;-80
2021/07/26 08:48:25;;;;;;;1.50;0.80;;;26.90;79.60;;;;;;5024601;28;20476;-78
2021/07/26 08:50:56;;;;;;;1.50;0.80;;;26.80;79.90;;;;;;5004679;28;20452;-82
2021/07/26 08:53:26;;;;;;;1.50;0.90;;;26.80;80.50;;;;;;5021252;28;20554;-82
2021/07/26 08:55:54;;;;;;;1.50;0.90;;;26.90;79.70;;;;;;5007372;28;20525;-81
2021/07/26 08:58:23;;;;;;;1.50;0.80;;;26.90;79.70;;;;;;5025343;28;20849;-80
2021/07/26 09:00:49;;;;;;;1.50;0.80;;;26.90;79.40;;;;;;5005645;28;20507;-80
2021/07/26 09:03:21;;;;;;;1.50;0.80;;;26.90;79.50;;;;;;5012656;28;20465;-81
2021/07/26 09:05:48;;;;;;;1.50;0.80;;;26.80;80.20;;;;;;5003958;28;20487;-78
2021/07/26 09:08:15;;;;;;;1.50;0.80;;;26.80;79.70;;;;;;5016664;28;20496;-78
2021/07/26 09:10:46;;;;;;;1.50;0.80;;;26.60;80.10;;;;;;5008213;28;20507;-78
2021/07/26 09:13:13;;;;;;;1.50;0.90;;;26.60;80.60;;;;;;5003802;28;20479;-80
2021/07/26 09:15:49;;;;;;;1.50;0.87;;;26.60;80.70;;;;;;4997114;28;20457;-81
2021/07/26 09:18:17;;;;;;;1.50;0.90;;;26.50;80.20;;;;;;4976494;28;20515;-78
2021/07/26 09:20:52;;;;;;;1.50;0.80;;;26.50;80.60;;;;;;4994458;28;20453;-80
2021/07/26 09:23:21;;;;;;;1.50;0.80;;;26.40;80.00;;;;;;5001567;28;20468;-80
2021/07/26 09:25:50;;;;;;;1.50;1.00;;;26.40;80.10;;;;;;5007016;28;20519;-80
2021/07/26 09:28:20;;;;;;;1.50;0.80;;;26.50;79.80;;;;;;5029518;28;20527;-79
2021/07/26 09:30:49;;;;;;;1.50;0.80;;;26.50;79.50;;;;;;4996955;28;20568;-80
2021/07/26 09:33:19;;;;;;;1.50;0.80;;;26.70;80.60;;;;;;5028769;28;20471;-78
2021/07/26 09:35:49;;;;;;;1.50;0.83;;;26.90;80.10;;;;;;5005539;28;20460;-79
2021/07/26 09:38:25;;;;;;;1.50;0.90;;;27.20;79.20;;;;;;5020102;28;20895;-79
2021/07/26 09:40:52;;;;;;;1.80;1.23;;;27.30;78.30;;;;;;5000445;28;20559;-82
2021/07/26 09:43:21;;;;;;;1.50;0.80;;;27.30;78.60;;;;;;5026382;28;20468;-85
2021/07/26 09:45:51;;;;;;;1.50;0.90;;;27.30;78.70;;;;;;5004602;28;20480;-81
2021/07/26 09:48:19;;;;;;;1.50;0.80;;;27.40;78.20;;;;;;5027488;28;20494;-82
2021/07/26 09:50:47;;;;;;;1.50;0.90;;;27.30;77.20;;;;;;5008437;28;20463;-79
2021/07/26 09:53:16;;;;;;;1.50;0.80;;;27.40;76.30;;;;;;5028757;28;20486;-79
2021/07/26 09:55:46;;;;;;;1.50;0.80;;;27.50;76.90;;;;;;5015557;28;20466;-80
2021/07/26 09:58:15;;;;;;;1.50;0.80;;;27.70;75.40;;;;;;5001362;28;20488;-79
2021/07/26 10:00:43;;;;;;;1.50;0.90;;;27.80;75.30;;;;;;5013780;28;20459;-81
2021/07/26 10:03:13;;;;;;;1.43;0.80;;;27.80;75.80;;;;;;5016357;28;20475;-80
2021/07/26 10:05:43;;;;;;;1.50;0.80;;;27.80;76.20;;;;;;5009162;28;20896;-81
2021/07/26 10:08:11;;;;;;;1.50;0.80;;;27.70;76.80;;;;;;5014980;28;20487;-81
2021/07/26 10:10:41;;;;;;;1.50;0.80;;;27.60;76.60;;;;;;5010199;28;20547;-81
2021/07/26 10:13:09;;;;;;;1.50;0.90;;;27.70;77.30;;;;;;5011872;28;20738;-80
2021/07/26 10:15:37;;;;;;;1.50;0.80;;;27.90;77.50;;;;;;5011735;28;20460;-77
2021/07/26 10:18:05;;;;;;;1.60;0.80;;;28.10;75.10;;;;;;4999520;28;20720;-80
2021/07/26 10:20:39;;;;;;;1.50;0.90;;;28.40;73.90;;;;;;4992837;28;20476;-80
2021/07/26 10:23:13;;;;;;;1.50;0.80;;;28.60;74.50;;;;;;4996833;28;20670;-78
2021/07/26 10:25:45;;;;;;;1.50;0.90;;;28.60;73.70;;;;;;4990901;28;20492;-77
2021/07/26 10:28:17;;;;;;;1.50;0.80;;;28.30;74.30;;;;;;4980475;28;20480;-78
2021/07/26 10:30:44;;;;;;;1.50;0.80;;;28.20;73.70;;;;;;4990978;28;20470;-80
2021/07/26 10:33:11;;;;;;;1.50;0.80;;;28.00;74.80;;;;;;4983058;28;20802;-79
2021/07/26 10:35:48;;;;;;;1.50;0.80;;;27.80;74.90;;;;;;4989949;28;20468;-79
2021/07/26 10:38:36;;;;;;;1.50;0.90;;;27.60;75.60;;;;;;4998972;28;20483;-79
2021/07/26 10:41:02;;;;;;;1.50;0.80;;;27.40;75.30;;;;;;5017879;28;20571;-79
2021/07/26 10:43:58;;;;;;;1.50;0.90;;;27.20;76.40;;;;;;5062979;28;20483;-78
2021/07/26 10:46:25;;;;;;;1.50;0.80;;;27.10;76.60;;;;;;5047449;28;20548;-79
2021/07/26 10:48:53;;;;;;;1.50;0.90;;;27.00;76.90;;;;;;5050961;28;20512;-80
2021/07/26 10:51:39;;;;;;;1.50;0.80;;;27.00;77.40;;;;;;4994665;28;20472;-79
2021/07/26 10:54:08;;;;;;;1.50;0.80;;;27.10;77.20;;;;;;5011891;28;20809;-79
2021/07/26 10:57:10;;;;;;;1.50;0.90;;;27.10;77.40;;;;;;4981608;28;20484;-79
2021/07/26 11:00:15;;;;;;;1.50;0.90;;;27.20;76.40;;;;;;4991355;28;20469;-79
2021/07/26 11:02:44;;;;;;;1.50;0.90;;;27.30;76.40;;;;;;4991597;28;20484;-80
2021/07/26 11:05:42;;;;;;;1.47;0.80;;;27.50;76.60;;;;;;4985051;28;20472;-79
2021/07/26 11:08:26;;;;;;;1.47;0.80;;;27.60;75.40;;;;;;4955715;28;20487;-80
2021/07/26 11:10:57;;;;;;;1.43;0.80;;;27.60;76.00;;;;;;4972499;28;20537;-79
2021/07/26 11:13:44;;;;;;;1.50;0.80;;;27.60;76.60;;;;;;5006896;28;20552;-79
2021/07/26 11:16:11;;;;;;;1.50;0.80;;;27.70;77.90;;;;;;4982645;28;20484;-78
2021/07/26 11:18:44;;;;;;;1.47;0.83;;;27.90;76.10;;;;;;5015786;28;20495;-77
2021/07/26 11:21:13;;;;;;;1.50;0.80;;;28.00;75.70;;;;;;4976770;28;20480;-79
2021/07/26 11:23:52;;;;;;;1.50;0.90;;;28.10;75.30;;;;;;5004527;28;20905;-78
2021/07/26 11:26:29;;;;;;;1.50;0.90;;;28.20;75.00;;;;;;4985649;28;20486;-78
2021/07/26 11:28:57;;;;;;;1.50;0.80;;;28.40;74.30;;;;;;5001711;28;20906;-78
2021/07/26 11:31:34;;;;;;;1.50;0.80;;;28.40;73.60;;;;;;4981063;28;20470;-80
2021/07/26 11:34:06;;;;;;;1.50;0.80;;;28.40;74.60;;;;;;4987822;28;20863;-80
2021/07/26 11:36:33;;;;;;;1.50;0.80;;;28.60;74.70;;;;;;4981700;28;20492;-80
2021/07/26 11:39:09;;;;;;;1.47;0.80;;;28.70;75.40;;;;;;4998494;28;20477;-80
2021/07/26 11:41:37;;;;;;;1.50;0.80;;;28.90;73.70;;;;;;4984231;28;20476;-78
2021/07/26 11:44:04;;;;;;;1.50;0.90;;;29.00;73.90;;;;;;4999305;28;20491;-78
2021/07/26 11:46:31;;;;;;;1.50;0.80;;;29.20;73.10;;;;;;4980447;28;20479;-79
2021/07/26 11:49:00;;;;;;;1.50;0.80;;;29.30;72.50;;;;;;4994325;28;20523;-78
2021/07/26 11:51:33;;;;;;;1.50;0.80;;;29.40;73.50;;;;;;5024925;28;20514;-78
2021/07/26 11:54:05;;;;;;;1.50;0.80;;;29.50;72.40;;;;;;5032510;28;20505;-81
2021/07/26 11:56:33;;;;;;;1.50;0.80;;;29.60;72.20;;;;;;5032304;28;20558;-78
2021/07/26 11:59:30;;;;;;;1.47;0.80;;;29.70;72.10;;;;;;5036598;28;20976;-79
2021/07/26 12:01:59;;;;;;;1.50;0.90;;;29.80;71.40;;;;;;4987707;28;20485;-78
2021/07/26 12:04:28;;;;;;;1.50;0.90;;;29.90;70.90;;;;;;5043715;28;20468;-79
2021/07/26 12:06:57;;;;;;;1.50;0.80;;;29.80;70.90;;;;;;5029524;28;20494;-78
2021/07/26 12:09:25;;;;;;;1.50;0.80;;;29.80;72.60;;;;;;5042112;28;20461;-79
2021/07/26 12:11:55;;;;;;;1.47;0.80;;;29.70;71.80;;;;;;5030045;28;20489;-80
2021/07/26 12:14:25;;;;;;;1.47;0.80;;;29.60;72.00;;;;;;5045214;28;20950;-80
2021/07/26 12:17:04;;;;;;;1.50;0.80;;;29.70;71.90;;;;;;5032071;28;20482;-79
2021/07/26 12:19:31;;;;;;;1.50;0.80;;;29.90;71.90;;;;;;5046000;28;20465;-80
2021/07/26 12:22:16;;;;;;;1.47;0.80;;;30.00;71.80;;;;;;5035395;28;20871;-80
2021/07/26 12:24:47;;;;;;;1.47;0.80;;;29.90;70.70;;;;;;5052263;28;20465;-81
2021/07/26 12:27:30;;;;;;;1.50;0.80;;;29.80;70.30;;;;;;5027197;28;20520;-79
2021/07/26 12:29:58;;;;;;;1.43;0.80;;;29.60;70.70;;;;;;5048130;28;20747;-80
2021/07/26 12:32:26;;;;;;;1.50;0.80;;;29.40;71.60;;;;;;5033274;28;20679;-78
2021/07/26 12:35:26;;;;;;;1.47;0.80;;;29.20;72.80;;;;;;5040150;28;20466;-79
2021/07/26 12:38:04;;;;;;;1.43;0.80;;;29.00;73.50;;;;;;5034446;28;20564;-80
2021/07/26 12:40:32;;;;;;;1.50;0.80;;;28.70;75.20;;;;;;5052869;28;20465;-79
2021/07/26 12:43:16;;;;;;;1.50;0.80;;;28.60;74.20;;;;;;5022178;28;20486;-78
2021/07/26 12:45:43;;;;;;;1.50;0.80;;;28.60;74.50;;;;;;5050464;28;20507;-79
2021/07/26 12:48:15;;;;;;;1.47;0.83;;;28.70;74.50;;;;;;5022841;28;20508;-79
2021/07/26 12:50:43;;;;;;;1.47;0.80;;;28.80;74.70;;;;;;5030893;28;20565;-78
2021/07/26 12:53:11;;;;;;;1.47;0.80;;;28.90;74.90;;;;;;5035599;28;20475;-79
2021/07/26 12:55:38;;;;;;;1.47;0.80;;;29.10;75.00;;;;;;5030056;28;20685;-79
2021/07/26 12:58:05;;;;;;;1.43;0.80;;;29.20;73.00;;;;;;5031629;28;20477;-80
2021/07/26 13:00:35;;;;;;;1.50;0.87;;;29.30;72.20;;;;;;5029137;28;20470;-79
2021/07/26 13:03:03;;;;;;;1.47;0.90;;;29.60;72.70;;;;;;5031222;28;20511;-79